createdAt,value
2022-10-29T00:02:14.390Z,68.07
2022-10-29T00:05:19.939Z,68.02
2022-10-29T00:08:25.760Z,68.14
2022-10-29T00:11:31.551Z,68.32
2022-10-29T00:14:37.328Z,68.23
2022-10-29T00:17:42.857Z,68.42
2022-10-29T00:20:49.248Z,68.49
2022-10-29T00:23:55.092Z,68.41
2022-10-29T00:27:00.628Z,68.30
2022-10-29T00:30:07.336Z,68.09
2022-10-29T00:33:13.167Z,67.89
2022-10-29T00:36:22.297Z,67.91
2022-10-29T00:39:29.605Z,68.15
2022-10-29T00:42:35.134Z,68.06
2022-10-29T00:45:47.652Z,68.16
2022-10-29T00:48:55.756Z,68.22
2022-10-29T00:52:02.277Z,68.26
2022-10-29T00:55:11.495Z,68.08
2022-10-29T00:58:17.116Z,67.93
2022-10-29T01:01:22.697Z,68.00
2022-10-29T01:04:29.079Z,68.09
2022-10-29T01:07:33.355Z,68.30
2022-10-29T01:10:53.240Z,68.52
2022-10-29T01:14:08.139Z,68.68
2022-10-29T01:17:27.904Z,68.56
2022-10-29T01:20:57.916Z,68.82
2022-10-29T01:24:44.010Z,68.72
2022-10-29T01:28:00.359Z,69.02
2022-10-29T01:31:26.345Z,69.22
2022-10-29T01:34:34.704Z,69.41
2022-10-29T01:37:49.065Z,69.38
2022-10-29T01:41:01.469Z,69.01
2022-10-29T01:44:15.169Z,68.81
2022-10-29T01:47:22.968Z,68.92
2022-10-29T01:50:29.791Z,68.99
2022-10-29T01:53:38.676Z,69.04
2022-10-29T01:56:44.124Z,68.97
2022-10-29T01:59:56.058Z,68.92
2022-10-29T02:03:14.063Z,69.04
2022-10-29T02:06:26.380Z,69.04
2022-10-29T02:09:36.986Z,69.01
2022-10-29T02:12:47.860Z,69.26
2022-10-29T02:15:56.893Z,69.23
2022-10-29T02:19:03.707Z,69.26
2022-10-29T02:22:09.167Z,69.41
2022-10-29T02:25:14.772Z,69.48
2022-10-29T02:31:30.632Z,69.47
2022-10-29T02:34:36.079Z,69.60
2022-10-29T02:37:41.735Z,69.55
2022-10-29T02:40:47.281Z,69.67
2022-10-29T02:43:52.729Z,69.71
2022-10-29T02:46:58.175Z,69.63
2022-10-29T02:50:03.622Z,69.60
2022-10-29T02:53:09.114Z,70.09
2022-10-29T02:56:14.619Z,70.07
2022-10-29T02:59:20.169Z,69.99
2022-10-29T03:02:25.789Z,69.96
2022-10-29T03:05:31.373Z,69.84
2022-10-29T03:08:36.921Z,69.85
2022-10-29T03:11:42.368Z,69.79
2022-10-29T03:14:47.801Z,69.87
2022-10-29T03:17:53.427Z,69.65
2022-10-29T03:20:59.220Z,69.74
2022-10-29T03:24:04.909Z,69.76
2022-10-29T03:27:10.421Z,69.76
2022-10-29T03:30:18.183Z,70.07
2022-10-29T03:33:23.672Z,70.19
2022-10-29T03:36:29.629Z,70.50
2022-10-29T03:39:35.179Z,70.54
2022-10-29T03:42:41.842Z,70.59
2022-10-29T03:45:50.743Z,70.65
2022-10-29T03:48:56.156Z,70.86
2022-10-29T03:52:01.677Z,71.05
2022-10-29T03:55:08.640Z,71.28
2022-10-29T03:58:14.107Z,71.31
2022-10-29T04:01:19.717Z,71.22
2022-10-29T04:04:25.411Z,71.21
2022-10-29T04:07:30.960Z,71.69
2022-10-29T04:10:36.513Z,71.76
2022-10-29T04:13:42.168Z,71.79
2022-10-29T04:16:47.710Z,71.92
2022-10-29T04:19:53.159Z,72.79
2022-10-29T04:29:48.410Z,72.92
2022-10-29T04:32:56.735Z,73.75
2022-10-29T04:36:02.481Z,76.33
2022-10-29T04:39:08.106Z,73.58
2022-10-29T04:42:13.538Z,72.65
2022-10-29T04:45:20.770Z,72.58
2022-10-29T04:48:27.587Z,72.63
2022-10-29T04:51:33.008Z,72.25
2022-10-29T04:54:38.439Z,72.16
2022-10-29T04:57:43.988Z,72.11
2022-10-29T05:00:49.877Z,71.63
2022-10-29T05:03:58.947Z,72.17
2022-10-29T05:07:05.960Z,74.76
2022-10-29T05:10:12.975Z,76.14
2022-10-29T05:13:18.411Z,76.54
2022-10-29T05:16:23.940Z,73.73
2022-10-29T05:19:29.333Z,72.12
2022-10-29T05:22:34.834Z,71.38
2022-10-29T05:25:42.567Z,71.29
2022-10-29T05:28:49.933Z,71.46
2022-10-29T05:31:56.827Z,71.36
2022-10-29T05:35:02.360Z,70.83
2022-10-29T05:38:08.008Z,70.36
2022-10-29T05:41:13.764Z,69.95
2022-10-29T05:44:19.229Z,69.93
2022-10-29T05:47:24.760Z,69.97
2022-10-29T05:50:31.441Z,69.94
2022-10-29T05:53:37.013Z,69.97
2022-10-29T05:56:42.534Z,70.14
2022-10-29T05:59:48.028Z,70.14
2022-10-29T06:02:53.749Z,69.92
2022-10-29T06:05:59.407Z,70.04
2022-10-29T06:09:04.935Z,70.14
2022-10-29T06:12:11.456Z,70.36
2022-10-29T06:15:17.038Z,70.56
2022-10-29T06:18:22.507Z,70.39
2022-10-29T06:21:27.955Z,70.53
2022-10-29T06:24:33.399Z,70.62
2022-10-29T06:27:39.066Z,70.50
2022-10-29T06:30:49.416Z,70.48
2022-10-29T06:33:55.537Z,70.55
2022-10-29T06:37:01.191Z,70.72
2022-10-29T06:40:08.412Z,71.08
2022-10-29T06:43:14.582Z,72.09
2022-10-29T06:46:20.062Z,72.15
2022-10-29T06:49:25.491Z,72.68
2022-10-29T06:52:31.332Z,73.16
2022-10-29T06:55:37.106Z,75.43
2022-10-29T06:58:42.588Z,76.18
2022-10-29T07:01:48.054Z,75.51
2022-10-29T07:04:53.632Z,75.10
2022-10-29T07:08:00.497Z,75.14
2022-10-29T07:11:07.415Z,74.85
2022-10-29T07:14:12.944Z,74.19
2022-10-29T07:17:18.341Z,74.06
2022-10-29T07:20:24.042Z,73.80
2022-10-29T07:26:36.779Z,73.41
2022-10-29T07:29:42.329Z,73.34
2022-10-29T07:32:47.878Z,73.16
2022-10-29T07:35:57.188Z,73.07
2022-10-29T07:39:04.048Z,72.79
2022-10-29T07:42:09.642Z,72.48
2022-10-29T07:45:15.297Z,72.26
2022-10-29T07:48:21.729Z,71.98
2022-10-29T07:51:27.420Z,72.30
2022-10-29T07:54:32.971Z,71.59
2022-10-29T07:57:38.417Z,70.66
2022-10-29T08:00:44.192Z,71.29
2022-10-29T08:03:50.582Z,71.39
2022-10-29T08:06:54.470Z,70.88
2022-10-29T08:09:59.915Z,70.89
2022-10-29T08:13:07.440Z,70.33
2022-10-29T08:16:13.250Z,69.85
2022-10-29T08:19:18.696Z,69.31
2022-10-29T08:22:24.245Z,68.86
2022-10-29T08:25:29.941Z,68.83
2022-10-29T08:28:35.934Z,68.66
2022-10-29T08:31:42.335Z,68.49
2022-10-29T08:34:46.271Z,68.16
2022-10-29T08:37:51.991Z,67.88
2022-10-29T08:41:13.618Z,67.29
2022-10-29T08:44:43.574Z,66.81
2022-10-29T08:48:13.767Z,66.78
2022-10-29T08:51:24.954Z,66.92
2022-10-29T08:54:34.350Z,67.03
2022-10-29T08:57:44.048Z,66.64
2022-10-29T09:00:53.985Z,66.16
2022-10-29T09:03:59.946Z,65.49
2022-10-29T09:07:22.338Z,65.42
2022-10-29T09:10:34.095Z,64.88
2022-10-29T09:13:53.765Z,64.50
2022-10-29T09:17:10.267Z,64.92
2022-10-29T09:20:31.487Z,64.44
2022-10-29T09:23:58.898Z,63.89
2022-10-29T09:27:12.926Z,63.68
2022-10-29T09:30:20.314Z,63.84
2022-10-29T09:33:28.195Z,63.68
2022-10-29T09:36:34.704Z,63.69
2022-10-29T09:39:43.407Z,63.56
2022-10-29T09:42:50.027Z,63.56
2022-10-29T09:46:02.679Z,62.96
2022-10-29T09:49:26.897Z,62.82
2022-10-29T09:52:35.493Z,62.92
2022-10-29T09:55:44.519Z,62.64
2022-10-29T09:58:56.417Z,62.64
2022-10-29T10:02:02.612Z,62.44
2022-10-29T10:05:16.116Z,62.02
2022-10-29T10:08:21.666Z,61.17
2022-10-29T10:11:28.900Z,60.70
2022-10-29T10:14:34.339Z,60.61
2022-10-29T10:18:01.902Z,60.35
2022-10-29T10:21:10.401Z,60.36
2022-10-29T10:24:32.877Z,60.12
2022-10-29T10:27:38.381Z,60.66
2022-10-29T10:30:44.239Z,60.69
2022-10-29T10:33:54.799Z,59.78
2022-10-29T10:37:06.381Z,58.95
2022-10-29T10:40:24.744Z,58.84
2022-10-29T10:43:30.397Z,60.89
2022-10-29T10:46:39.980Z,60.70
2022-10-29T10:49:46.004Z,59.94
2022-10-29T10:52:50.597Z,58.88
2022-10-29T10:55:58.669Z,57.59
2022-10-29T10:59:12.381Z,60.68
2022-10-29T11:02:27.170Z,61.11
2022-10-29T11:05:37.575Z,58.96
2022-10-29T11:08:47.867Z,57.97
2022-10-29T11:12:00.839Z,59.41
2022-10-29T11:15:16.730Z,60.60
2022-10-29T11:18:26.529Z,60.37
2022-10-29T11:21:39.355Z,58.58
2022-10-29T11:24:54.425Z,57.57
2022-10-29T11:28:19.475Z,58.79
2022-10-29T11:31:30.508Z,60.20
2022-10-29T11:34:52.340Z,59.91
2022-10-29T11:38:03.285Z,57.88
2022-10-29T11:41:21.256Z,57.54
2022-10-29T11:44:27.544Z,58.51
2022-10-29T11:47:54.441Z,59.22
2022-10-29T11:51:38.270Z,58.90
2022-10-29T11:54:57.436Z,61.14
2022-10-29T11:58:11.770Z,60.81
2022-10-29T12:01:28.247Z,58.43
2022-10-29T12:04:38.065Z,57.10
2022-10-29T12:07:59.409Z,57.75
2022-10-29T12:11:12.648Z,57.58
2022-10-29T12:14:28.336Z,58.40
2022-10-29T12:17:36.731Z,58.59
2022-10-29T12:20:52.147Z,58.48
2022-10-29T12:24:14.529Z,60.16
2022-10-29T12:27:26.825Z,58.21
2022-10-29T12:30:40.729Z,57.11
2022-10-29T12:33:56.341Z,57.32
2022-10-29T12:37:10.905Z,58.88
2022-10-29T12:40:22.159Z,58.17
2022-10-29T12:43:30.655Z,60.73
2022-10-29T12:46:41.144Z,59.74
2022-10-29T12:49:56.959Z,57.16
2022-10-29T12:53:11.403Z,56.65
2022-10-29T12:56:18.652Z,57.46
2022-10-29T12:59:37.448Z,57.81
2022-10-29T13:02:47.255Z,58.34
2022-10-29T13:05:53.469Z,58.92
2022-10-29T13:09:12.726Z,58.43
2022-10-29T13:13:01.316Z,58.48
2022-10-29T13:16:15.771Z,58.51
2022-10-29T13:19:49.358Z,59.48
2022-10-29T13:22:58.209Z,59.16
2022-10-29T13:26:05.196Z,59.73
2022-10-29T13:29:11.349Z,59.95
2022-10-29T13:32:37.858Z,60.23
2022-10-29T13:35:53.259Z,60.33
2022-10-29T13:39:18.305Z,60.62
2022-10-29T13:42:24.567Z,60.35
2022-10-29T13:45:31.610Z,62.15
2022-10-29T13:48:40.147Z,61.76
2022-10-29T13:51:54.567Z,60.67
2022-10-29T13:55:04.302Z,59.74
2022-10-29T13:58:17.566Z,57.75
2022-10-29T14:01:25.991Z,58.09
2022-10-29T14:04:36.753Z,58.21
2022-10-29T14:07:50.697Z,58.01
2022-10-29T14:10:59.668Z,57.78
2022-10-29T14:14:17.063Z,59.03
2022-10-29T14:17:23.298Z,58.74
2022-10-29T14:20:31.016Z,59.12
2022-10-29T14:23:41.102Z,59.50
2022-10-29T14:26:48.147Z,59.73
2022-10-29T14:29:55.631Z,60.26
2022-10-29T14:33:02.008Z,60.22
2022-10-29T14:36:16.695Z,60.70
2022-10-29T14:39:32.432Z,62.54
2022-10-29T14:42:48.292Z,62.41
2022-10-29T14:45:55.554Z,61.09
2022-10-29T14:49:06.964Z,58.69
2022-10-29T14:52:32.691Z,57.95
2022-10-29T14:55:42.177Z,58.70
2022-10-29T14:58:49.007Z,59.14
2022-10-29T15:02:05.816Z,59.67
2022-10-29T15:05:27.458Z,59.91
2022-10-29T15:08:39.837Z,60.53
2022-10-29T15:11:59.927Z,62.26
2022-10-29T15:15:22.296Z,62.56
2022-10-29T15:18:30.009Z,61.90
2022-10-29T15:21:40.741Z,61.12
2022-10-29T15:24:49.790Z,60.65
2022-10-29T15:27:56.813Z,60.01
2022-10-29T15:31:06.652Z,59.86
2022-10-29T15:34:18.559Z,59.04
2022-10-29T15:37:41.912Z,59.52
2022-10-29T15:41:13.839Z,60.37
2022-10-29T15:44:40.197Z,61.42
2022-10-29T15:47:48.450Z,64.23
2022-10-29T15:50:55.391Z,64.17
2022-10-29T15:54:04.953Z,63.35
2022-10-29T15:57:13.666Z,62.83
2022-10-29T16:00:21.304Z,62.60
2022-10-29T16:03:28.500Z,62.62
2022-10-29T16:06:34.930Z,62.29
2022-10-29T16:09:44.966Z,62.11
2022-10-29T16:12:51.698Z,61.95
2022-10-29T16:15:58.038Z,61.67
2022-10-29T16:19:04.062Z,61.48
2022-10-29T16:22:12.078Z,61.70
2022-10-29T16:25:25.348Z,61.88
2022-10-29T16:28:31.452Z,61.59
2022-10-29T16:31:37.725Z,61.30
2022-10-29T16:34:44.037Z,61.44
2022-10-29T16:37:50.874Z,61.47
2022-10-29T16:40:56.964Z,61.40
2022-10-29T16:44:01.458Z,61.40
2022-10-29T16:47:08.303Z,61.44
2022-10-29T16:50:19.818Z,61.34
2022-10-29T16:53:25.986Z,61.33
2022-10-29T16:56:32.132Z,61.42
2022-10-29T16:59:38.231Z,61.24
2022-10-29T17:02:44.791Z,61.46
2022-10-29T17:05:50.848Z,61.47
2022-10-29T17:08:55.410Z,61.17
2022-10-29T17:12:01.513Z,61.27
2022-10-29T17:15:06.478Z,61.66
2022-10-29T17:18:12.508Z,62.09
2022-10-29T17:21:16.981Z,61.93
2022-10-29T17:24:23.355Z,62.15
2022-10-29T17:27:29.496Z,62.19
2022-10-29T17:30:34.042Z,62.31
2022-10-29T17:33:40.384Z,62.70
2022-10-29T17:36:46.660Z,63.02
2022-10-29T17:39:52.785Z,63.81
2022-10-29T17:42:57.434Z,64.67
2022-10-29T17:46:04.329Z,65.32
2022-10-29T17:49:10.710Z,65.04
2022-10-29T17:52:17.574Z,64.46
2022-10-29T17:55:23.903Z,63.95
2022-10-29T17:58:31.138Z,63.57
2022-10-29T18:01:37.380Z,63.39
2022-10-29T18:04:43.661Z,63.06
2022-10-29T18:07:48.095Z,63.14
2022-10-29T18:10:57.838Z,63.12
2022-10-29T18:14:04.165Z,63.06
2022-10-29T18:17:10.335Z,63.31
2022-10-29T18:20:15.003Z,63.73
2022-10-29T18:23:21.060Z,64.42
2022-10-29T18:26:26.734Z,64.09
2022-10-29T18:29:32.854Z,63.84
2022-10-29T18:32:37.322Z,64.52
2022-10-29T18:35:43.441Z,64.22
2022-10-29T18:38:52.150Z,63.75
2022-10-29T18:41:58.299Z,63.66
2022-10-29T18:45:02.802Z,63.55
2022-10-29T18:48:09.701Z,63.61
2022-10-29T18:51:17.867Z,63.40
2022-10-29T18:54:24.192Z,63.25
2022-10-29T18:57:30.823Z,63.38
2022-10-29T19:00:37.053Z,63.54
2022-10-29T19:03:43.760Z,63.50
2022-10-29T19:06:49.912Z,63.49
2022-10-29T19:09:54.450Z,63.65
2022-10-29T19:13:00.671Z,63.74
2022-10-29T19:16:08.685Z,63.67
2022-10-29T19:19:17.236Z,63.74
2022-10-29T19:22:25.930Z,63.78
2022-10-29T19:25:33.838Z,63.98
2022-10-29T19:28:42.654Z,64.07
2022-10-29T19:31:49.107Z,63.79
2022-10-29T19:34:55.219Z,63.71
2022-10-29T19:38:00.029Z,63.68
2022-10-29T19:41:06.432Z,63.71
2022-10-29T19:44:13.248Z,64.02
2022-10-29T19:47:19.357Z,64.57
2022-10-29T19:53:35.379Z,64.73
2022-10-29T19:56:41.674Z,63.64
2022-10-29T19:59:47.839Z,63.49
2022-10-29T20:02:54.325Z,63.79
2022-10-29T20:06:00.713Z,63.66
2022-10-29T20:09:05.193Z,63.47
2022-10-29T20:12:11.629Z,63.64
2022-10-29T20:15:18.131Z,63.52
2022-10-29T20:18:24.688Z,63.52
2022-10-29T20:21:30.921Z,63.58
2022-10-29T20:24:37.184Z,63.53
2022-10-29T20:27:43.397Z,63.71
2022-10-29T20:30:47.935Z,63.99
2022-10-29T20:33:55.411Z,64.46
2022-10-29T20:37:01.610Z,64.70
2022-10-29T20:40:06.697Z,64.65
2022-10-29T20:43:12.752Z,64.62
2022-10-29T20:46:18.883Z,64.51
2022-10-29T20:49:25.062Z,64.68
2022-10-29T20:52:30.646Z,64.82
2022-10-29T20:55:36.886Z,64.82
2022-10-29T20:58:41.440Z,65.05
2022-10-29T21:01:47.566Z,66.00
2022-10-29T21:04:52.189Z,66.87
2022-10-29T21:07:58.715Z,67.81
2022-10-29T21:11:06.877Z,67.67
2022-10-29T21:14:12.959Z,67.38
2022-10-29T21:17:18.992Z,67.56
2022-10-29T21:20:25.104Z,67.81
2022-10-29T21:26:42.215Z,68.24
2022-10-29T21:29:48.350Z,68.23
2022-10-29T21:32:55.202Z,68.35
2022-10-29T21:36:01.681Z,68.60
2022-10-29T21:39:07.889Z,68.85
2022-10-29T21:42:12.500Z,69.03
2022-10-29T21:45:18.793Z,69.21
2022-10-29T21:48:26.228Z,68.62
2022-10-29T21:51:32.325Z,68.27
2022-10-29T21:54:39.313Z,68.06
2022-10-29T21:57:47.062Z,67.96
2022-10-29T22:00:53.197Z,67.84
2022-10-29T22:03:57.864Z,67.92
2022-10-29T22:07:03.997Z,68.16
2022-10-29T22:10:09.262Z,67.92
2022-10-29T22:13:15.419Z,67.99
2022-10-29T22:16:19.847Z,67.86
2022-10-29T22:19:26.002Z,67.86
2022-10-29T22:22:30.547Z,67.70
2022-10-29T22:25:36.753Z,67.74
2022-10-29T22:28:41.233Z,67.63
2022-10-29T22:31:47.452Z,67.75
2022-10-29T22:34:51.928Z,67.55
2022-10-29T22:41:11.395Z,67.62
2022-10-29T22:44:17.567Z,67.38
2022-10-29T22:47:22.104Z,67.34
2022-10-29T22:50:28.711Z,67.30
2022-10-29T22:53:35.160Z,67.31
2022-10-29T22:56:41.978Z,67.56
2022-10-29T22:59:48.033Z,67.82
2022-10-29T23:02:54.237Z,67.80
2022-10-29T23:06:01.547Z,67.83
2022-10-29T23:09:07.729Z,68.35
2022-10-29T23:12:12.264Z,68.78
2022-10-29T23:15:18.654Z,69.13
2022-10-29T23:18:24.682Z,69.03
2022-10-29T23:21:31.111Z,68.93
2022-10-29T23:24:37.155Z,69.11
2022-10-29T23:27:43.250Z,69.14
2022-10-29T23:30:53.338Z,69.04
2022-10-29T23:34:00.096Z,68.96
2022-10-29T23:37:08.854Z,68.55
2022-10-29T23:40:16.780Z,68.39
2022-10-29T23:43:23.061Z,68.23
2022-10-29T23:46:29.246Z,67.46
2022-10-29T23:49:33.871Z,66.95
2022-10-29T23:52:39.999Z,67.03
2022-10-29T23:55:44.725Z,67.26
2022-10-29T23:58:50.831Z,67.49
